Metar Cercanos

 

LEPA - Palma De Mallorc, Spain
Distance from station: ONO 38km
Actualización: 18/02/2018 07:30
Muy nuboso
Muy nuboso
 Viento del NE
Viento: NE 9 km/h
Temperatura: 11°C
Rocío: 8°C
Humedad: 82%
Barómetro: 1021 hPa
Clouds: Muy nuboso
Visibility: 10 km
Cloud details: Few Clouds 762 m
Muy nuboso 1676 m
2018/02/18 06:30 LEPA 180630Z 05005KT 9999 FEW025 BKN055 11/08 Q1021 NOSIG
LEMH - Mahon/Menorca Is, Spain
Distance from station: ENE 105km
Actualización: 18/02/2018 07:30
Few Clouds
Few Clouds
 Viento del N
Viento: N 37 km/h
Temperatura: 11°C
Rocío: 5°C
Humedad: 67%
Barómetro: 1021 hPa
Clouds: Few Clouds
Visibility: 10 km
Cloud details: Few Clouds 1067 m
2018/02/18 06:30 LEMH 180630Z 01020KT 9999 FEW035 11/05 Q1021
 
LEIB - Ibiza/Es Codola, Spain
Distance from station: OSO 165km
Actualización: 18/02/2018 07:30
Muy nuboso
Muy nuboso
 Viento del ENE
Viento: ENE 11 km/h
Temperatura: 13°C
Rocío: 9°C
Humedad: 77%
Barómetro: 1022 hPa
Clouds: Muy nuboso
Visibility: 10 km
Cloud details: Few Clouds 1067 m
Muy nuboso 1463 m
2018/02/18 06:30 LEIB 180630Z 07006KT 040V100 9999 FEW035 BKN048 13/09 Q1022 NOSIG
LEBL - Barcelona Airpor, Spain
Distance from station: NNO 225km
Actualización: 18/02/2018 07:30
Few Clouds
Few Clouds
 Viento del NNO
Viento: NNO 26 km/h
Temperatura: 7°C
Sensación frio: 3°C
Rocío: 3°C
Humedad: 76%
Barómetro: 1022 hPa
Clouds: Few Clouds
Visibility: 10 km
Cloud details: Few Clouds 914 m
2018/02/18 06:30 LEBL 180630Z 33014KT 9999 FEW030 07/03 Q1022 NOSIG
 
LEVC - Valencia (civ/Mi, Spain
Distance from station: NO 188km
Actualización: 18/02/2018 07:30
Parcialmente nuboso
Parcialmente nuboso
 Viento del NNO
Viento: NNO 17 km/h
Temperatura: 10°C
Sensación frio: 8°C
Rocío: 7°C
Humedad: 82%
Barómetro: 1023 hPa
Clouds: Parcialmente nuboso
Visibility: 10 km
Cloud details: Few Clouds 1067 m
Parcialmente nuboso 1676 m
2018/02/18 06:30 LEVC 180630Z 33009KT 9999 FEW035 SCT055 10/07 Q1023 NOSIG
LEGE - Gerona/Costa Bra, Spain
Distance from station: N 276km
Actualización: 18/02/2018 07:30
Muy nuboso
Muy nuboso
 Viento del calm
Viento: Calma
Temperatura: 6°C
Rocío: 6°C
Humedad: 100%
Barómetro: 1022 hPa
Clouds: Muy nuboso
Visibility: 10 km
Cloud details: Muy nuboso 884 m
2018/02/18 06:30 LEGE 180630Z 00000KT 9999 BKN029 06/06 Q1022
 
LEAL - Alicante/El Alte, Spain
Distance from station: OSO 344km
Actualización: 18/02/2018 07:30
Parcialmente nuboso
Parcialmente nuboso
 Viento del ONO
Viento: ONO 9 km/h
Temperatura: 11°C
Rocío: 9°C
Humedad: 88%
Barómetro: 1021 hPa
Clouds: Parcialmente nuboso
Visibility: 10 km
Cloud details: Few Clouds 975 m
Parcialmente nuboso 1524 m
2018/02/18 06:30 LEAL 180630Z 29005KT 250V320 9999 FEW032 SCT050 11/09 Q1021 NOSIG
LEAM - Almeria Airport, Spain
Distance from station: SSO 56km
Actualización: 18/02/2018 07:30
Muy nuboso
Muy nuboso
 Viento del E
Viento: E 13 km/h
Temperatura: 13°C
Rocío: 9°C
Humedad: 77%
Barómetro: 1020 hPa
Clouds: Muy nuboso
Visibility: 10 km
Cloud details: Muy nuboso 2134 m
2018/02/18 06:30 LEAM 180630Z 10007KT 9999 BKN070 13/09 Q1020
 
LEZG - Zaragoza (mil/Ci, Spain
Distance from station: NO 431km
Actualización: 18/02/2018 07:30
Despejado
Despejado
 Viento del O
Viento: O 28 km/h
Temperatura: 6°C
Sensación frio: 2°C
Rocío: 2°C
Humedad: 76%
Barómetro: 1024 hPa
Resumen: Despejado
Visibility: greater than 10 km
2018/02/18 06:30 LEZG 180630Z 28015KT CAVOK 06/02 Q1024
LEMD - Madrid/Barajas, Spain
Distance from station: ONO 234km
Actualización: 18/02/2018 07:30
Despejado
Despejado
 Viento del varies
Viento: varies 4 km/h
Temperatura: 0°C
Rocío: -2°C
Humedad: 87%
Barómetro: 1024 hPa
Resumen: Despejado
Visibility: greater than 10 km
2018/02/18 06:30 LEMD 180630Z VRB02KT CAVOK 00/M02 Q1024 NOSIG
 
LEGR - Granada Airport, Spain
Distance from station: OSO 62km
Actualización: 18/02/2018 07:30
Despejado
Despejado
 Viento del SSO
Viento: SSO 6 km/h
Temperatura: 2°C
Rocío: 1°C
Humedad: 93%
Barómetro: 1021 hPa
Resumen: Despejado
Visibility: greater than 10 km
2018/02/18 06:30 LEGR 180630Z 21003KT CAVOK 02/01 Q1021
LEMG - Malaga (civ/Mil), Spain
Distance from station: OSO 227km
Actualización: 18/02/2018 07:30
Few Clouds
Few Clouds
 Viento del ONO
Viento: ONO 13 km/h
Temperatura: 9°C
Sensación frio: 7°C
Rocío: 7°C
Humedad: 87%
Barómetro: 1021 hPa
Clouds: Few Clouds
Visibility: 10 km
Cloud details: Few Clouds 762 m
2018/02/18 06:30 LEMG 180630Z 30007KT 9999 FEW025 09/07 Q1021 NOSIG
 
LEZL - Sevilla (civ/Mil, Spain
Distance from station: S 318km
Actualización: 18/02/2018 07:30
Niebla, Cubierto
Niebla, Cubierto
 Viento del varies
Viento: varies 4 km/h
Temperatura: 8°C
Rocío: 7°C
Humedad: 93%
Barómetro: 1021 hPa
Resumen: Niebla
Clouds: Cubierto
Visibility: 0 km
Cloud details: Cubierto 30 m
2018/02/18 06:30 LEZL 180630Z VRB02KT 0200 R27/0300N R09/0225N FG VV001 08/07 Q1021 NOSIG
LEVT - Vitoria, Spain
Distance from station: NO 226km
Actualización: 18/02/2018 07:30
Muy nuboso
Muy nuboso
 Viento del varies
Viento: varies 4 km/h
Temperatura: 5°C
Rocío: 4°C
Humedad: 93%
Barómetro: 1026 hPa
Clouds: Muy nuboso
Visibility: 10 km
Cloud details: Parcialmente nuboso 610 m
Muy nuboso 1067 m
2018/02/18 06:30 LEVT 180630Z VRB02KT 9999 SCT020 BKN035 05/04 Q1026
 
LEBB - Bilbao/Sondica, Spain
Distance from station: NNO 235km
Actualización: 18/02/2018 07:30
Patches of fog, Muy nuboso
Patches of fog, Muy nuboso
 Viento del E
Viento: E 7 km/h
Temperatura: 6°C
Sensación frio: 4°C
Rocío: 5°C
Humedad: 93%
Barómetro: 1027 hPa
Resumen: Patches of Fog
Clouds: Muy nuboso
Visibility: 10 km
Cloud details: Few Clouds 671 m
Parcialmente nuboso 945 m
Muy nuboso 1372 m
2018/02/18 06:30 LEBB 180630Z 10004KT 9999 BCFG FEW022 SCT031 BKN045 06/05 Q1027 NOSIG
LESO - San Sebastian/Fu, Spain
Distance from station: N 231km
Actualización: 18/02/2018 07:30
Few Clouds
Few Clouds
 Viento del SSO
Viento: SSO 6 km/h
Temperatura: 6°C
Rocío: 6°C
Humedad: 100%
Barómetro: 1027 hPa
Clouds: Few Clouds
Visibility: 10 km
Cloud details: Few Clouds 1524 m
2018/02/18 06:30 LESO 180630Z 20003KT 150V280 9999 FEW050 06/06 Q1027
 
LEVD - Valladolid(Mil/C, Spain
Distance from station: ONO 239km
Actualización: 18/02/2018 07:30
Despejado
Despejado
 Viento del NNE
Viento: NNE 7 km/h
Temperatura: -2°C
Sensación frio: -6°C
Rocío: -3°C
Humedad: 93%
Barómetro: 1025 hPa
Resumen: Despejado
Visibility: greater than 10 km
2018/02/18 06:30 LEVD 180630Z 03004KT CAVOK M02/M03 Q1025
LESA - Salamanca (civ/M, Spain
Distance from station: ONO 349km
Actualización: 18/02/2018 07:30
Despejado
Despejado
 Viento del calm
Viento: Calma
Temperatura: -3°C
Rocío: -4°C
Humedad: 93%
Barómetro: 1025 hPa
Resumen: Despejado
Visibility: greater than 10 km
2018/02/18 06:30 LESA 180630Z 00000KT CAVOK M03/M04 Q1025
 
LEXJ - Santander/Paraya, Spain
Distance from station: NNO 247km
Actualización: 18/02/2018 07:30
Muy nuboso
Muy nuboso
 Viento del SO
Viento: SO 15 km/h
Temperatura: 8°C
Sensación frio: 5°C
Rocío: 5°C
Humedad: 82%
Barómetro: 1027 hPa
Clouds: Muy nuboso
Visibility: 10 km
Cloud details: Muy nuboso 2134 m
2018/02/18 06:30 LEXJ 180630Z 22008KT 9999 BKN070 08/05 Q1027
LEAS - Asturias/Aviles, Spain
Distance from station: NO 214km
Actualización: 18/02/2018 07:30
Muy nuboso
Muy nuboso
 Viento del SO
Viento: SO 17 km/h
Temperatura: 7°C
Sensación frio: 4°C
Rocío: 3°C
Humedad: 76%
Barómetro: 1027 hPa
Clouds: Muy nuboso
Visibility: 10 km
Cloud details: Few Clouds 1067 m
Parcialmente nuboso 1829 m
Muy nuboso 2134 m
2018/02/18 06:30 LEAS 180630Z 23009KT 9999 FEW035 SCT060 BKN070 07/03 Q1027 NOSIG
 
LECO - La Coruna/Alvedr, Spain
Distance from station: ONO 222km
Actualización: 18/02/2018 07:30
Patches of fog, Parcialmente nuboso
Patches of fog, Parcialmente nuboso
 Viento del S
Viento: S 7 km/h
Temperatura: 3°C
Sensación frio: 1°C
Rocío: 2°C
Humedad: 93%
Barómetro: 1028 hPa
Resumen: Patches of Fog
Clouds: Parcialmente nuboso
Visibility: 10 km
2018/02/18 06:30 LECO 180630Z 18004KT 9999 1200SE BCFG NSC 03/02 Q1028 TEMPO 1500 BCFG
LEVX - Vigo/Peinador, Spain
Distance from station: O 214km
Actualización: 18/02/2018 07:30
Despejado
Despejado
 Viento del SO
Viento: SO 6 km/h
Temperatura: 4°C
Rocío: 2°C
Humedad: 87%
Barómetro: 1026 hPa
Resumen: Despejado
Visibility: greater than 10 km
2018/02/18 06:30 LEVX 180630Z 22003KT 170V250 CAVOK 04/02 Q1026 NOSIG